sensor_id;sensor_type;location;lat;lon;timestamp;pressure;altitude;pressure_sealevel;temperature;humidity
72560;BME280;62987;52.382;9.752;2023-12-14T10:23:54;100993.38;;;3.50;100.00
72560;BME280;62987;52.382;9.752;2023-12-14T10:26:26;100997.72;;;3.54;100.00
72560;BME280;62987;52.382;9.752;2023-12-14T10:28:54;100999.38;;;3.65;100.00
72560;BME280;62987;52.382;9.752;2023-12-14T10:31:23;101003.69;;;3.72;100.00
72560;BME280;62987;52.382;9.752;2023-12-14T10:33:53;101004.50;;;3.77;100.00
72560;BME280;62987;52.382;9.752;2023-12-14T10:36:22;101000.13;;;3.80;100.00
72560;BME280;62987;52.382;9.752;2023-12-14T10:38:56;101006.22;;;3.84;100.00
72560;BME280;62987;52.382;9.752;2023-12-14T10:41:25;101022.84;;;3.86;100.00
72560;BME280;62987;52.382;9.752;2023-12-14T10:43:56;101025.50;;;3.86;100.00
72560;BME280;62987;52.382;9.752;2023-12-14T10:46:48;101013.28;;;3.80;100.00
72560;BME280;62987;52.382;9.752;2023-12-14T10:49:17;101033.38;;;3.84;100.00
72560;BME280;62987;52.382;9.752;2023-12-14T10:51:46;101039.50;;;3.88;100.00
72560;BME280;62987;52.382;9.752;2023-12-14T10:54:18;101039.50;;;3.88;100.00
72560;BME280;62987;52.382;9.752;2023-12-14T10:56:46;101041.28;;;3.87;100.00
72560;BME280;62987;52.382;9.752;2023-12-14T10:59:15;101036.06;;;3.80;100.00
72560;BME280;62987;52.382;9.752;2023-12-14T11:01:44;101043.03;;;3.84;100.00
72560;BME280;62987;52.382;9.752;2023-12-14T11:04:13;101043.03;;;3.87;100.00
72560;BME280;62987;52.382;9.752;2023-12-14T11:06:45;101057.03;;;3.89;100.00
72560;BME280;62987;52.382;9.752;2023-12-14T11:09:18;101051.78;;;3.87;100.00
72560;BME280;62987;52.382;9.752;2023-12-14T11:11:55;101060.50;;;3.91;100.00
72560;BME280;62987;52.382;9.752;2023-12-14T11:14:27;101058.75;;;3.90;100.00
72560;BME280;62987;52.382;9.752;2023-12-14T11:16:57;101064.00;;;3.93;100.00
72560;BME280;62987;52.382;9.752;2023-12-14T11:19:30;101064.00;;;3.93;100.00
72560;BME280;62987;52.382;9.752;2023-12-14T11:22:10;101063.09;;;3.95;100.00
72560;BME280;62987;52.382;9.752;2023-12-14T11:24:51;101068.41;;;3.94;100.00
72560;BME280;62987;52.382;9.752;2023-12-14T11:27:27;101062.31;;;3.89;100.00
72560;BME280;62987;52.382;9.752;2023-12-14T11:29:56;101063.97;;;3.96;100.00
72560;BME280;62987;52.382;9.752;2023-12-14T11:32:26;101066.66;;;3.93;100.00
72560;BME280;62987;52.382;9.752;2023-12-14T11:34:55;101058.75;;;3.90;100.00
72560;BME280;62987;52.382;9.752;2023-12-14T11:37:25;101070.97;;;3.97;100.00
72560;BME280;62987;52.382;9.752;2023-12-14T11:39:56;101077.09;;;3.99;100.00
72560;BME280;62987;52.382;9.752;2023-12-14T11:42:24;101073.63;;;3.95;100.00
72560;BME280;62987;52.382;9.752;2023-12-14T11:44:53;101092.00;;;4.00;100.00
72560;BME280;62987;52.382;9.752;2023-12-14T11:47:21;101088.50;;;4.01;100.00
72560;BME280;62987;52.382;9.752;2023-12-14T11:49:50;101090.28;;;3.96;100.00
72560;BME280;62987;52.382;9.752;2023-12-14T11:52:19;101098.97;;;4.04;100.00
72560;BME280;62987;52.382;9.752;2023-12-14T11:54:47;101095.47;;;4.02;100.00
72560;BME280;62987;52.382;9.752;2023-12-14T11:57:17;101092.84;;;4.07;100.00
72560;BME280;62987;52.382;9.752;2023-12-14T11:59:46;101093.72;;;4.04;100.00
72560;BME280;62987;52.382;9.752;2023-12-14T12:02:23;101096.28;;;4.10;100.00
72560;BME280;62987;52.382;9.752;2023-12-14T12:04:52;101109.38;;;4.19;100.00
72560;BME280;62987;52.382;9.752;2023-12-14T12:07:21;101108.50;;;4.19;100.00
72560;BME280;62987;52.382;9.752;2023-12-14T12:09:49;101111.13;;;4.19;100.00
72560;BME280;62987;52.382;9.752;2023-12-14T12:12:20;101113.81;;;4.13;100.00
72560;BME280;62987;52.382;9.752;2023-12-14T12:14:49;101108.53;;;4.16;100.00
72560;BME280;62987;52.382;9.752;2023-12-14T12:17:19;101105.94;;;4.14;100.00
72560;BME280;62987;52.382;9.752;2023-12-14T12:19:48;101112.91;;;4.15;100.00
72560;BME280;62987;52.382;9.752;2023-12-14T12:22:17;101112.03;;;4.16;100.00
72560;BME280;62987;52.382;9.752;2023-12-14T12:24:45;101110.25;;;4.18;100.00
72560;BME280;62987;52.382;9.752;2023-12-14T12:27:22;101109.44;;;4.10;100.00
72560;BME280;62987;52.382;9.752;2023-12-14T12:29:51;101112.88;;;4.21;100.00
72560;BME280;62987;52.382;9.752;2023-12-14T12:32:21;101114.66;;;4.16;100.00
72560;BME280;62987;52.382;9.752;2023-12-14T12:34:49;101121.66;;;4.19;100.00
72560;BME280;62987;52.382;9.752;2023-12-14T12:37:19;101129.47;;;4.28;100.00
72560;BME280;62987;52.382;9.752;2023-12-14T12:39:48;101127.69;;;4.28;100.00
72560;BME280;62987;52.382;9.752;2023-12-14T12:42:17;101135.59;;;4.31;100.00
72560;BME280;62987;52.382;9.752;2023-12-14T12:44:47;101123.28;;;4.33;100.00
72560;BME280;62987;52.382;9.752;2023-12-14T12:47:15;101130.34;;;4.28;100.00
72560;BME280;62987;52.382;9.752;2023-12-14T12:49:44;101130.41;;;4.22;100.00
72560;BME280;62987;52.382;9.752;2023-12-14T12:52:12;101125.13;;;4.25;100.00
72560;BME280;62987;52.382;9.752;2023-12-14T12:54:40;101136.47;;;4.29;100.00
72560;BME280;62987;52.382;9.752;2023-12-14T12:57:09;101137.34;;;4.32;100.00
72560;BME280;62987;52.382;9.752;2023-12-14T12:59:37;101145.25;;;4.28;100.00
72560;BME280;62987;52.382;9.752;2023-12-14T13:02:07;101143.53;;;4.27;100.00
72560;BME280;62987;52.382;9.752;2023-12-14T13:04:36;101147.88;;;4.32;100.00
72560;BME280;62987;52.382;9.752;2023-12-14T13:07:05;101143.53;;;4.27;100.00
72560;BME280;62987;52.382;9.752;2023-12-14T13:09:33;101153.91;;;4.42;100.00
72560;BME280;62987;52.382;9.752;2023-12-14T13:12:02;101150.38;;;4.43;100.00
72560;BME280;62987;52.382;9.752;2023-12-14T13:14:31;101138.16;;;4.34;100.00
72560;BME280;62987;52.382;9.752;2023-12-14T13:17:00;101157.34;;;4.50;100.00
72560;BME280;62987;52.382;9.752;2023-12-14T13:19:33;101156.56;;;4.40;100.00
72560;BME280;62987;52.382;9.752;2023-12-14T13:22:01;101158.28;;;4.45;100.00
72560;BME280;62987;52.382;9.752;2023-12-14T13:24:30;101158.22;;;4.48;100.00
72560;BME280;62987;52.382;9.752;2023-12-14T13:26:59;101161.78;;;4.43;100.00
72560;BME280;62987;52.382;9.752;2023-12-14T13:29:28;101161.78;;;4.47;100.00
72560;BME280;62987;52.382;9.752;2023-12-14T13:31:58;101167.03;;;4.47;100.00
72560;BME280;62987;52.382;9.752;2023-12-14T13:34:27;101175.78;;;4.52;100.00
72560;BME280;62987;52.382;9.752;2023-12-14T13:36:57;101189.81;;;4.51;100.00
72560;BME280;62987;52.382;9.752;2023-12-14T13:39:27;101183.66;;;4.52;100.00
72560;BME280;62987;52.382;9.752;2023-12-14T13:41:56;101189.75;;;4.57;100.00
72560;BME280;62987;52.382;9.752;2023-12-14T13:44:25;101190.66;;;4.54;100.00
72560;BME280;62987;52.382;9.752;2023-12-14T13:46:53;101188.00;;;4.56;100.00
72560;BME280;62987;52.382;9.752;2023-12-14T13:49:24;101185.38;;;4.57;100.00
72560;BME280;62987;52.382;9.752;2023-12-14T13:51:52;101180.09;;;4.56;100.00
72560;BME280;62987;52.382;9.752;2023-12-14T13:54:22;101198.41;;;4.68;100.00
72560;BME280;62987;52.382;9.752;2023-12-14T13:56:51;101199.34;;;4.65;100.00
72560;BME280;62987;52.382;9.752;2023-12-14T13:59:21;101204.59;;;4.65;100.00
72560;BME280;62987;52.382;9.752;2023-12-14T14:01:50;101209.88;;;4.65;100.00
72560;BME280;62987;52.382;9.752;2023-12-14T14:04:19;101217.75;;;4.67;100.00
72560;BME280;62987;52.382;9.752;2023-12-14T14:06:50;101226.56;;;4.66;100.00
72560;BME280;62987;52.382;9.752;2023-12-14T14:09:18;101231.75;;;4.72;100.00
72560;BME280;62987;52.382;9.752;2023-12-14T14:11:50;101224.88;;;4.59;100.00
72560;BME280;62987;52.382;9.752;2023-12-14T14:14:19;101234.41;;;4.67;100.00
72560;BME280;62987;52.382;9.752;2023-12-14T14:16:50;101242.38;;;4.66;100.00
72560;BME280;62987;52.382;9.752;2023-12-14T14:19:19;101251.16;;;4.66;100.00
72560;BME280;62987;52.382;9.752;2023-12-14T14:21:47;101262.59;;;4.61;100.00
72560;BME280;62987;52.382;9.752;2023-12-14T14:24:16;101261.78;;;4.53;100.00
72560;BME280;62987;52.382;9.752;2023-12-14T14:26:44;101276.63;;;4.63;100.00
72560;BME280;62987;52.382;9.752;2023-12-14T14:29:14;101281.03;;;4.61;100.00
72560;BME280;62987;52.382;9.752;2023-12-14T14:31:43;101272.34;;;4.53;100.00
72560;BME280;62987;52.382;9.752;2023-12-14T14:34:11;101299.50;;;4.56;100.00
72560;BME280;62987;52.382;9.752;2023-12-14T14:36:40;101297.78;;;4.54;100.00
72560;BME280;62987;52.382;9.752;2023-12-14T14:39:08;101297.81;;;4.49;100.00
72560;BME280;62987;52.382;9.752;2023-12-14T14:41:37;101312.66;;;4.58;100.00
72560;BME280;62987;52.382;9.752;2023-12-14T14:44:06;101324.09;;;4.58;100.00
72560;BME280;62987;52.382;9.752;2023-12-14T14:46:36;101329.34;;;4.58;100.00
72560;BME280;62987;52.382;9.752;2023-12-14T14:49:05;101330.22;;;4.56;100.00
72560;BME280;62987;52.382;9.752;2023-12-14T14:51:34;101333.78;;;4.53;100.00
72560;BME280;62987;52.382;9.752;2023-12-14T14:54:02;101327.59;;;4.57;100.00
72560;BME280;62987;52.382;9.752;2023-12-14T14:56:36;101339.91;;;4.55;100.00
72560;BME280;62987;52.382;9.752;2023-12-14T14:59:06;101336.44;;;4.50;100.00
72560;BME280;62987;52.382;9.752;2023-12-14T15:01:39;101340.81;;;4.48;100.00
72560;BME280;62987;52.382;9.752;2023-12-14T15:04:07;101349.59;;;4.49;100.00
72560;BME280;62987;52.382;9.752;2023-12-14T15:06:36;101362.78;;;4.49;100.00
72560;BME280;62987;52.382;9.752;2023-12-14T15:09:05;101368.91;;;4.51;100.00
72560;BME280;62987;52.382;9.752;2023-12-14T15:11:36;101375.09;;;4.43;100.00
72560;BME280;62987;52.382;9.752;2023-12-14T15:14:04;101384.75;;;4.45;100.00
72560;BME280;62987;52.382;9.752;2023-12-14T15:16:33;101382.16;;;4.38;100.00
72560;BME280;62987;52.382;9.752;2023-12-14T15:19:04;101386.53;;;4.39;100.00
72560;BME280;62987;52.382;9.752;2023-12-14T15:21:33;101376.94;;;4.32;100.00
72560;BME280;62987;52.382;9.752;2023-12-14T15:24:02;101395.28;;;4.41;100.00
72560;BME280;62987;52.382;9.752;2023-12-14T15:26:31;101397.97;;;4.40;100.00
72560;BME280;62987;52.382;9.752;2023-12-14T15:29:00;101396.19;;;4.37;100.00
72560;BME280;62987;52.382;9.752;2023-12-14T15:31:28;101399.72;;;4.39;100.00
72560;BME280;62987;52.382;9.752;2023-12-14T15:33:57;101402.38;;;4.33;100.00
72560;BME280;62987;52.382;9.752;2023-12-14T15:36:29;101405.00;;;4.32;100.00
72560;BME280;62987;52.382;9.752;2023-12-14T15:39:00;101409.44;;;4.25;100.00
72560;BME280;62987;52.382;9.752;2023-12-14T15:41:31;101416.50;;;4.19;100.00
72560;BME280;62987;52.382;9.752;2023-12-14T15:44:00;101431.41;;;4.21;100.00
72560;BME280;62987;52.382;9.752;2023-12-14T15:46:28;101418.28;;;4.14;100.00
72560;BME280;62987;52.382;9.752;2023-12-14T15:48:57;101418.28;;;4.12;100.00
72560;BME280;62987;52.382;9.752;2023-12-14T15:51:25;101420.91;;;4.09;100.00
72560;BME280;62987;52.382;9.752;2023-12-14T15:53:56;101423.56;;;4.06;100.00
72560;BME280;62987;52.382;9.752;2023-12-14T15:56:31;101419.19;;;3.99;100.00
72560;BME280;62987;52.382;9.752;2023-12-14T15:59:03;101423.63;;;3.85;100.00
72560;BME280;62987;52.382;9.752;2023-12-14T16:01:34;101411.41;;;3.69;100.00
72560;BME280;62987;52.382;9.752;2023-12-14T16:04:04;101428.94;;;3.67;100.00
72560;BME280;62987;52.382;9.752;2023-12-14T16:06:31;101436.84;;;3.65;100.00
72560;BME280;62987;52.382;9.752;2023-12-14T16:09:01;101430.69;;;3.65;100.00
72560;BME280;62987;52.382;9.752;2023-12-14T16:11:31;101435.97;;;3.68;100.00
72560;BME280;62987;52.382;9.752;2023-12-14T16:14:03;101435.97;;;3.60;100.00
72560;BME280;62987;52.382;9.752;2023-12-14T16:16:31;101427.22;;;3.47;100.00
72560;BME280;62987;52.382;9.752;2023-12-14T16:18:59;101435.13;;;3.34;100.00
72560;BME280;62987;52.382;9.752;2023-12-14T16:21:29;101440.41;;;3.23;100.00
72560;BME280;62987;52.382;9.752;2023-12-14T16:26:12;101453.53;;;3.29;100.00
72560;BME280;62987;52.382;9.752;2023-12-14T16:28:40;101471.94;;;3.41;100.00
72560;BME280;62987;52.382;9.752;2023-12-14T16:31:09;101486.81;;;3.54;100.00
72560;BME280;62987;52.382;9.752;2023-12-14T16:33:38;101480.69;;;3.61;100.00
72560;BME280;62987;52.382;9.752;2023-12-14T16:36:11;101486.81;;;3.73;100.00
72560;BME280;62987;52.382;9.752;2023-12-14T16:38:40;101477.16;;;3.72;100.00
72560;BME280;62987;52.382;9.752;2023-12-14T16:41:14;101479.75;;;3.84;100.00
72560;BME280;62987;52.382;9.752;2023-12-14T16:43:42;101495.53;;;3.87;100.00
72560;BME280;62987;52.382;9.752;2023-12-14T16:46:11;101501.69;;;3.89;100.00
72560;BME280;62987;52.382;9.752;2023-12-14T16:51:17;101507.78;;;3.97;100.00
72560;BME280;62987;52.382;9.752;2023-12-14T16:53:46;101511.28;;;4.02;100.00
72560;BME280;62987;52.382;9.752;2023-12-14T16:56:16;101519.19;;;4.03;100.00
72560;BME280;62987;52.382;9.752;2023-12-14T17:01:01;101525.31;;;4.02;100.00
72560;BME280;62987;52.382;9.752;2023-12-14T17:03:30;101523.56;;;4.03;100.00
72560;BME280;62987;52.382;9.752;2023-12-14T17:05:58;101540.25;;;4.05;100.00
